Time;durP1;ratioP1;P1;durP2;ratioP2;P2;SDS_P1;SDS_P2;PMS_P1;PMS_P2;Temp;Humidity;BMP_temperature;BMP_pressure;BME280_temperature;BME280_humidity;BME280_pressure;Samples;Min_cycle;Max_cycle;Signal;HPM_P1;HPM_P2
2020/12/26 00:00:53;;;;;;;5.07;3.10;;;;;;;1.37;87.21;100127.99;1753970;81;25157;-77
2020/12/26 00:03:21;;;;;;;3.53;2.37;;;;;;;1.34;87.17;100128.12;1745167;81;25196;-77
2020/12/26 00:05:48;;;;;;;4.00;2.90;;;;;;;1.37;87.04;100125.86;1754161;81;25679;-77
2020/12/26 00:08:15;;;;;;;5.80;3.03;;;;;;;1.41;87.02;100128.31;1754077;81;25102;-77
2020/12/26 00:10:41;;;;;;;5.57;3.53;;;;;;;1.38;86.96;100136.18;1754102;81;25357;-77
2020/12/26 00:13:08;;;;;;;4.80;3.30;;;;;;;1.33;86.98;100126.41;1754410;81;25082;-77
2020/12/26 00:15:35;;;;;;;5.03;3.40;;;;;;;1.33;86.96;100130.30;1728885;81;25074;-77
2020/12/26 00:18:01;;;;;;;5.07;2.93;;;;;;;1.36;86.99;100130.20;1754036;81;25149;-77
2020/12/26 00:20:28;;;;;;;5.50;3.60;;;;;;;1.34;86.87;100131.13;1754007;81;25280;-77
2020/12/26 00:22:55;;;;;;;4.80;2.97;;;;;;;1.35;86.88;100129.80;1753943;81;25129;-77
2020/12/26 00:25:21;;;;;;;5.87;3.40;;;;;;;1.32;86.95;100124.70;1754042;81;25631;-77
2020/12/26 00:27:48;;;;;;;4.63;2.90;;;;;;;1.35;86.94;100128.50;1754254;81;25078;-77
2020/12/26 00:30:15;;;;;;;5.77;3.27;;;;;;;1.35;86.33;100131.55;1754080;81;25288;-77
2020/12/26 00:32:41;;;;;;;8.63;3.70;;;;;;;1.35;86.30;100131.09;1753923;81;25291;-76
2020/12/26 00:35:08;;;;;;;8.20;4.50;;;;;;;1.35;86.42;100128.95;1754208;81;25627;-77
2020/12/26 00:37:34;;;;;;;7.93;4.20;;;;;;;1.35;86.32;100125.91;1754191;81;25298;-77
2020/12/26 00:40:01;;;;;;;7.53;3.53;;;;;;;1.40;86.03;100129.66;1754128;81;25152;-76
2020/12/26 00:42:28;;;;;;;6.40;3.40;;;;;;;1.36;85.88;100132.80;1754108;81;25174;-77
2020/12/26 00:44:55;;;;;;;5.50;3.00;;;;;;;1.29;86.02;100129.98;1754053;81;25117;-77
2020/12/26 00:47:22;;;;;;;5.13;2.70;;;;;;;1.30;86.05;100130.39;1753974;81;25750;-77
2020/12/26 00:49:49;;;;;;;5.27;2.83;;;;;;;1.25;86.04;100133.11;1754220;81;25153;-78
2020/12/26 00:52:16;;;;;;;5.23;2.90;;;;;;;1.28;85.96;100139.96;1754105;81;25220;-77
2020/12/26 00:54:43;;;;;;;5.07;3.03;;;;;;;1.29;85.94;100132.56;1754151;81;25165;-77
2020/12/26 00:57:10;;;;;;;5.53;2.90;;;;;;;1.23;85.91;100142.69;1730327;81;25685;-77
2020/12/26 00:59:38;;;;;;;5.00;3.00;;;;;;;1.26;85.94;100140.01;1754075;81;25260;-77
2020/12/26 01:02:05;;;;;;;4.70;2.67;;;;;;;1.26;85.90;100132.69;1730503;81;25282;-77
2020/12/26 01:04:34;;;;;;;4.73;2.93;;;;;;;1.32;85.60;100141.55;1753338;81;25560;-77
2020/12/26 01:07:00;;;;;;;3.77;2.80;;;;;;;1.28;85.57;100138.66;1753982;81;25317;-76
2020/12/26 01:09:27;;;;;;;5.03;2.90;;;;;;;1.28;85.37;100137.38;1754075;81;25801;-76
2020/12/26 01:11:54;;;;;;;4.97;3.07;;;;;;;1.24;85.24;100130.57;1754038;81;25137;-76
2020/12/26 01:14:21;;;;;;;5.10;3.23;;;;;;;1.20;85.36;100127.23;1754149;81;25683;-76
2020/12/26 01:16:50;;;;;;;5.90;3.10;;;;;;;1.17;85.62;100134.25;1754131;81;25650;-76
2020/12/26 01:19:18;;;;;;;4.23;2.67;;;;;;;1.15;85.68;100134.75;1754151;81;25240;-75
2020/12/26 01:21:52;;;;;;;3.83;2.70;;;;;;;1.11;85.83;100136.14;1753855;81;25805;-75
2020/12/26 01:24:19;;;;;;;3.93;2.67;;;;;;;1.12;85.80;100130.50;1753467;81;25635;-75
2020/12/26 01:26:48;;;;;;;6.37;3.80;;;;;;;1.15;85.94;100132.16;1753538;81;25081;-76
2020/12/26 01:29:24;;;;;;;8.97;5.73;;;;;;;1.25;85.84;100134.87;1889349;76;26853;-76
2020/12/26 01:31:51;;;;;;;9.33;4.93;;;;;;;1.20;85.67;100139.34;1859977;77;25253;-75
2020/12/26 01:34:19;;;;;;;9.73;4.60;;;;;;;1.15;85.58;100143.36;1860255;77;25280;-77
2020/12/26 01:36:50;;;;;;;4.63;2.63;;;;;;;1.13;85.71;100141.28;1860123;76;25821;-76
2020/12/26 01:39:21;;;;;;;4.20;2.67;;;;;;;1.18;85.78;100138.55;1860145;77;25719;-77
2020/12/26 01:41:52;;;;;;;4.13;2.70;;;;;;;1.22;85.75;100138.84;1860223;77;25252;-76
2020/12/26 01:44:19;;;;;;;4.70;2.87;;;;;;;1.22;85.82;100141.44;1860165;77;25241;-76
2020/12/26 01:46:47;;;;;;;4.30;2.83;;;;;;;1.23;85.71;100141.84;1860102;77;25292;-76
2020/12/26 01:49:15;;;;;;;3.13;2.27;;;;;;;1.22;85.56;100146.62;1860162;77;25673;-76
2020/12/26 01:51:43;;;;;;;3.30;2.23;;;;;;;1.28;85.44;100143.84;1830693;77;25659;-77
2020/12/26 01:54:09;;;;;;;3.03;1.83;;;;;;;1.28;85.33;100149.03;1861760;76;25263;-76
2020/12/26 01:56:38;;;;;;;3.40;2.03;;;;;;;1.18;85.67;100151.05;1861721;77;25284;-76
2020/12/26 01:59:05;;;;;;;2.93;2.13;;;;;;;1.20;85.66;100153.14;1861828;77;25204;-76
2020/12/26 02:01:34;;;;;;;3.73;2.20;;;;;;;1.22;85.83;100154.39;1861555;77;25750;-76
2020/12/26 02:04:02;;;;;;;2.57;1.70;;;;;;;1.22;85.72;100160.88;1861637;77;25684;-77
2020/12/26 02:06:45;;;;;;;3.40;2.17;;;;;;;1.21;85.82;100154.85;1861607;76;25252;-76
2020/12/26 02:09:12;;;;;;;4.13;2.47;;;;;;;1.29;85.75;100150.70;1861746;76;25169;-76
2020/12/26 02:11:39;;;;;;;3.20;1.93;;;;;;;1.29;85.75;100155.89;1861518;77;25212;-76
2020/12/26 02:14:06;;;;;;;4.20;2.10;;;;;;;1.32;85.52;100142.84;1861676;76;25280;-76
2020/12/26 02:16:46;;;;;;;3.33;2.30;;;;;;;1.27;85.72;100147.33;1791467;79;25213;-77
2020/12/26 02:19:15;;;;;;;3.17;2.13;;;;;;;1.32;85.82;100144.14;1791433;80;25609;-76
2020/12/26 02:21:42;;;;;;;3.87;2.20;;;;;;;1.35;85.61;100153.58;1791378;80;25683;-77
2020/12/26 02:24:09;;;;;;;3.87;2.33;;;;;;;1.33;85.82;100156.67;1791450;80;25233;-77
2020/12/26 02:26:36;;;;;;;3.23;2.23;;;;;;;1.41;85.61;100152.94;1791330;79;25331;-76
2020/12/26 02:29:04;;;;;;;3.33;2.10;;;;;;;1.38;85.56;100151.73;1781685;79;25581;-77
2020/12/26 02:31:32;;;;;;;2.40;2.00;;;;;;;1.37;85.66;100152.62;1850054;77;25279;-77
2020/12/26 02:33:59;;;;;;;4.10;2.60;;;;;;;1.42;85.41;100144.70;1847515;77;25253;-77
2020/12/26 02:36:26;;;;;;;2.53;2.23;;;;;;;1.40;85.41;100145.20;1841112;77;25284;-77
2020/12/26 02:38:53;;;;;;;3.73;2.57;;;;;;;1.38;85.44;100149.14;1840800;77;25201;-77
2020/12/26 02:41:20;;;;;;;3.67;2.40;;;;;;;1.30;85.59;100141.59;1768759;81;25702;-77
2020/12/26 02:43:46;;;;;;;3.33;2.40;;;;;;;1.30;85.69;100137.70;1841060;77;25312;-77
2020/12/26 02:46:13;;;;;;;2.97;2.27;;;;;;;1.28;85.79;100145.14;1768824;81;25218;-76
2020/12/26 02:48:40;;;;;;;5.80;2.50;;;;;;;1.25;85.87;100147.83;1840343;78;25715;-77
2020/12/26 02:51:06;;;;;;;3.80;2.50;;;;;;;1.29;85.77;100148.98;1768636;80;25100;-76
2020/12/26 02:53:33;;;;;;;3.10;2.70;;;;;;;1.24;85.95;100150.88;1840737;77;25245;-76
2020/12/26 02:56:00;;;;;;;3.63;2.70;;;;;;;1.24;86.07;100149.58;1768842;80;25374;-77
2020/12/26 02:58:26;;;;;;;3.00;2.43;;;;;;;1.32;86.11;100158.39;1840067;78;25404;-76
2020/12/26 03:00:53;;;;;;;3.00;2.10;;;;;;;1.29;85.95;100154.59;1768844;81;25092;-77
2020/12/26 03:03:19;;;;;;;3.40;2.30;;;;;;;1.31;85.99;100163.20;1840923;77;25295;-77
2020/12/26 03:05:46;;;;;;;3.20;2.30;;;;;;;1.26;86.08;100164.62;1768844;80;25362;-76
2020/12/26 03:08:13;;;;;;;3.63;2.60;;;;;;;1.31;86.05;100173.56;1840651;77;25726;-76
2020/12/26 03:10:39;;;;;;;2.80;2.40;;;;;;;1.25;86.02;100165.51;1768750;80;25300;-76
2020/12/26 03:13:06;;;;;;;3.80;2.50;;;;;;;1.29;86.03;100171.44;1840579;77;25700;-76
2020/12/26 03:15:33;;;;;;;4.20;2.57;;;;;;;1.30;85.91;100170.09;1768783;81;25380;-77
2020/12/26 03:17:59;;;;;;;3.23;2.93;;;;;;;1.30;85.93;100176.58;1817309;77;25704;-77
2020/12/26 03:20:26;;;;;;;4.07;3.13;;;;;;;1.23;86.12;100176.83;1840542;77;25288;-75
2020/12/26 03:22:52;;;;;;;3.93;2.90;;;;;;;1.26;86.17;100168.52;1768680;80;25713;-76
2020/12/26 03:25:19;;;;;;;4.80;2.97;;;;;;;1.27;86.14;100174.53;1840472;77;25205;-76
2020/12/26 03:27:47;;;;;;;4.60;3.47;;;;;;;1.30;86.15;100168.80;1840165;77;25715;-76
2020/12/26 03:30:13;;;;;;;4.50;3.30;;;;;;;1.32;86.09;100170.52;1840507;77;25201;-77
2020/12/26 03:32:40;;;;;;;5.80;3.77;;;;;;;1.26;86.24;100170.27;1769058;80;25827;-77
2020/12/26 03:35:07;;;;;;;6.87;3.40;;;;;;;1.29;86.41;100163.66;1769163;81;25070;-77
2020/12/26 03:37:37;;;;;;;5.50;3.30;;;;;;;1.29;86.41;100163.66;1769026;81;25602;-77
2020/12/26 03:40:05;;;;;;;3.63;2.97;;;;;;;1.23;86.67;100162.13;1769037;80;25278;-77
2020/12/26 03:42:32;;;;;;;4.60;3.23;;;;;;;1.22;86.82;100167.34;1769107;80;25108;-76
2020/12/26 03:44:58;;;;;;;6.97;4.17;;;;;;;1.26;87.19;100165.08;1769028;81;25250;-77
2020/12/26 03:47:25;;;;;;;5.80;3.73;;;;;;;1.19;87.52;100170.03;1769015;80;25685;-76
2020/12/26 03:49:51;;;;;;;5.67;3.60;;;;;;;1.16;87.73;100179.19;1769022;81;25210;-77
2020/12/26 03:52:18;;;;;;;6.33;4.20;;;;;;;1.14;88.04;100177.97;1768749;80;25286;-77
2020/12/26 03:54:45;;;;;;;4.10;3.47;;;;;;;1.09;88.15;100185.87;1769022;80;25336;-76
2020/12/26 03:57:13;;;;;;;4.47;3.80;;;;;;;1.08;88.27;100182.86;1769061;80;25294;-76
2020/12/26 03:59:41;;;;;;;5.03;3.23;;;;;;;1.07;88.51;100191.55;1769154;81;25072;-77
2020/12/26 04:02:07;;;;;;;4.23;3.23;;;;;;;1.07;88.67;100181.19;1768926;80;25654;-76
2020/12/26 04:04:34;;;;;;;6.23;3.17;;;;;;;1.13;88.84;100185.78;1768985;81;25230;-77
2020/12/26 04:07:02;;;;;;;4.57;3.00;;;;;;;1.05;88.79;100184.70;1769089;81;25697;-76
2020/12/26 04:09:28;;;;;;;3.77;3.00;;;;;;;1.11;89.05;100184.07;1769022;81;25791;-77
2020/12/26 04:11:55;;;;;;;3.50;3.10;;;;;;;1.11;89.06;100193.59;1769023;80;25806;-77
2020/12/26 04:14:22;;;;;;;4.17;2.93;;;;;;;1.14;89.12;100196.10;1769089;80;25233;-76
2020/12/26 04:16:52;;;;;;;4.50;3.00;;;;;;;1.17;89.13;100193.39;1768825;80;25349;-76
2020/12/26 04:19:19;;;;;;;4.90;3.27;;;;;;;1.15;89.13;100191.75;1768353;80;25302;-77
2020/12/26 04:21:46;;;;;;;4.27;2.90;;;;;;;1.16;89.11;100194.30;1769025;81;25310;-76
2020/12/26 04:24:13;;;;;;;6.43;3.67;;;;;;;1.20;89.14;100193.77;1769027;81;25674;-77
2020/12/26 04:26:40;;;;;;;4.93;3.37;;;;;;;1.15;89.08;100195.19;1768862;81;25172;-76
2020/12/26 04:29:06;;;;;;;4.53;3.77;;;;;;;1.17;89.15;100195.98;1768602;81;25645;-77
2020/12/26 04:31:33;;;;;;;4.23;3.57;;;;;;;1.15;89.12;100188.70;1841218;77;25261;-77
2020/12/26 04:34:00;;;;;;;5.33;3.50;;;;;;;1.13;89.12;100186.62;1768530;81;25325;-77
2020/12/26 04:36:28;;;;;;;5.13;3.50;;;;;;;1.13;89.14;100189.66;1768648;80;25158;-77
2020/12/26 04:38:55;;;;;;;5.40;3.30;;;;;;;1.11;89.11;100185.82;1840923;77;25217;-77
2020/12/26 04:41:21;;;;;;;4.30;3.10;;;;;;;1.11;89.17;100193.14;1768658;80;25321;-77
2020/12/26 04:43:48;;;;;;;5.47;3.50;;;;;;;1.13;89.19;100196.14;1845504;77;25216;-77
2020/12/26 04:46:20;;;;;;;5.93;3.60;;;;;;;1.13;89.12;100196.14;1768710;81;25724;-77
2020/12/26 04:49:03;;;;;;;5.23;3.40;;;;;;;1.09;89.08;100194.94;1840531;77;25333;-77
2020/12/26 04:51:35;;;;;;;3.50;3.20;;;;;;;1.13;89.10;100200.03;1828600;77;25850;-77
2020/12/26 04:54:24;;;;;;;3.53;3.07;;;;;;;1.11;89.02;100197.02;1768740;81;25309;-76
2020/12/26 04:56:55;;;;;;;3.80;3.10;;;;;;;1.14;88.86;100198.69;1840464;77;25190;-76
2020/12/26 04:59:23;;;;;;;4.07;2.93;;;;;;;1.12;88.86;100201.75;1840439;78;25182;-76
2020/12/26 05:01:50;;;;;;;6.67;3.43;;;;;;;1.13;88.64;100209.09;1768130;81;25261;-76
2020/12/26 05:04:17;;;;;;;4.93;3.77;;;;;;;1.06;88.83;100198.06;1840686;77;25257;-76
2020/12/26 05:06:52;;;;;;;5.60;3.70;;;;;;;1.04;88.90;100201.99;1768549;81;25179;-76
2020/12/26 05:09:21;;;;;;;4.80;3.63;;;;;;;1.08;88.70;100206.17;1840473;77;25212;-75
2020/12/26 05:11:57;;;;;;;4.83;3.00;;;;;;;1.05;88.83;100202.83;1768756;81;25487;-76
2020/12/26 05:14:25;;;;;;;3.60;2.90;;;;;;;1.04;88.81;100205.01;1768778;80;25257;-75
2020/12/26 05:16:53;;;;;;;4.17;3.00;;;;;;;1.10;88.75;100208.27;1840639;77;25071;-75
2020/12/26 05:19:21;;;;;;;4.57;2.63;;;;;;;1.09;88.59;100215.66;1817033;78;25305;-76
2020/12/26 05:21:50;;;;;;;3.67;2.93;;;;;;;1.03;88.62;100218.42;1840294;78;25253;-75
2020/12/26 05:24:17;;;;;;;3.93;2.60;;;;;;;1.08;88.43;100214.41;1840094;78;25292;-76
2020/12/26 05:26:46;;;;;;;5.13;2.63;;;;;;;1.02;88.60;100214.15;1840337;78;25699;-77
2020/12/26 05:29:15;;;;;;;3.30;2.47;;;;;;;1.02;88.59;100208.97;1840263;78;25700;-75
2020/12/26 05:31:59;;;;;;;4.73;2.83;;;;;;;1.04;88.47;100214.08;1840258;77;25190;-75
2020/12/26 05:34:34;;;;;;;3.37;2.50;;;;;;;1.05;88.27;100215.33;1769063;81;25214;-75
2020/12/26 05:37:02;;;;;;;4.07;2.40;;;;;;;1.02;88.03;100215.45;1768932;81;25191;-77
2020/12/26 05:39:33;;;;;;;3.77;2.70;;;;;;;1.03;87.75;100221.01;1768831;81;25349;-76
2020/12/26 05:42:00;;;;;;;3.83;2.33;;;;;;;0.99;87.74;100222.42;1768883;80;25262;-77
2020/12/26 05:44:30;;;;;;;3.57;2.50;;;;;;;0.99;87.54;100218.55;1772594;80;25609;-76
2020/12/26 05:47:04;;;;;;;3.20;2.27;;;;;;;0.96;87.65;100214.31;1768974;81;25880;-76
2020/12/26 05:49:36;;;;;;;2.63;2.07;;;;;;;0.97;87.46;100222.92;1768188;80;25068;-77
2020/12/26 05:52:13;;;;;;;2.90;2.50;;;;;;;0.88;87.66;100219.70;1769077;80;25755;-76
2020/12/26 05:54:51;;;;;;;3.37;2.43;;;;;;;0.92;87.33;100221.75;1768992;80;25130;-76
2020/12/26 05:57:18;;;;;;;2.87;2.23;;;;;;;0.95;87.08;100226.85;1768394;81;25720;-76
2020/12/26 05:59:52;;;;;;;3.50;2.37;;;;;;;0.92;86.80;100223.05;1768898;80;25132;-76
2020/12/26 06:02:25;;;;;;;4.17;2.17;;;;;;;0.95;86.88;100224.26;1768866;80;25272;-75
2020/12/26 06:04:57;;;;;;;3.83;2.07;;;;;;;0.97;86.48;100230.70;1769062;80;25072;-75
2020/12/26 06:07:35;;;;;;;3.63;2.53;;;;;;;1.00;85.73;100228.86;1768988;81;25479;-75
2020/12/26 06:10:08;;;;;;;3.67;2.63;;;;;;;0.97;85.43;100228.94;1768670;81;25191;-75
2020/12/26 06:12:35;;;;;;;4.20;2.50;;;;;;;0.97;84.98;100229.40;1768840;80;25685;-75
2020/12/26 06:15:02;;;;;;;4.47;2.50;;;;;;;0.92;85.19;100232.11;1768965;80;25080;-75
2020/12/26 06:17:31;;;;;;;3.40;2.10;;;;;;;0.91;84.97;100236.91;1769116;80;25717;-75
2020/12/26 06:20:07;;;;;;;2.53;1.60;;;;;;;0.98;84.62;100238.88;1747524;80;25277;-75
2020/12/26 06:22:49;;;;;;;2.43;1.90;;;;;;;0.89;84.48;100230.48;1768943;81;25143;-75
2020/12/26 06:25:19;;;;;;;2.03;1.70;;;;;;;0.89;84.63;100234.36;1769112;80;25706;-74
2020/12/26 06:28:00;;;;;;;3.53;1.50;;;;;;;0.93;84.02;100237.25;1769341;80;25068;-75
2020/12/26 06:30:28;;;;;;;2.50;1.67;;;;;;;0.91;83.76;100247.27;1769030;81;25666;-75
2020/12/26 06:32:56;;;;;;;3.37;1.80;;;;;;;0.92;83.34;100254.13;1769034;80;25081;-76
2020/12/26 06:35:23;;;;;;;2.00;1.53;;;;;;;0.90;83.54;100248.98;1768914;80;25317;-75
2020/12/26 06:38:13;;;;;;;2.80;1.63;;;;;;;0.95;83.34;100255.34;1768802;80;25546;-76
2020/12/26 06:41:08;;;;;;;3.77;1.53;;;;;;;0.89;83.53;100255.08;1768660;80;25182;-75
2020/12/26 06:43:42;;;;;;;3.90;1.80;;;;;;;0.97;83.27;100264.37;1767841;80;25591;-76
2020/12/26 06:46:23;;;;;;;4.10;1.53;;;;;;;0.94;82.83;100262.73;1768887;81;25310;-76
2020/12/26 06:48:55;;;;;;;2.13;1.60;;;;;;;0.94;82.73;100261.44;1768805;81;25186;-76
2020/12/26 06:51:43;;;;;;;2.43;1.73;;;;;;;0.94;82.90;100265.32;1768856;80;25191;-77
2020/12/26 06:54:14;;;;;;;2.90;1.83;;;;;;;0.93;82.85;100264.45;1768779;81;25805;-77
2020/12/26 06:56:46;;;;;;;2.67;1.67;;;;;;;0.94;82.77;100271.80;1747231;81;25190;-77
2020/12/26 06:59:15;;;;;;;3.07;2.00;;;;;;;0.93;82.87;100267.49;1768825;81;25136;-76
2020/12/26 07:01:46;;;;;;;3.20;2.00;;;;;;;0.96;82.21;100276.48;1768678;80;25091;-77
2020/12/26 07:04:21;;;;;;;3.07;1.97;;;;;;;0.94;82.13;100283.45;1768896;81;25561;-76
2020/12/26 07:06:54;;;;;;;4.23;1.80;;;;;;;0.93;82.16;100279.15;1768779;80;25479;-76
2020/12/26 07:09:41;;;;;;;2.83;1.73;;;;;;;0.96;82.38;100283.41;1768865;80;25114;-76
2020/12/26 07:12:08;;;;;;;3.37;2.07;;;;;;;0.95;82.10;100292.90;1746996;81;25175;-77
2020/12/26 07:14:51;;;;;;;2.37;2.10;;;;;;;0.93;82.39;100295.53;1768691;80;25392;-77
2020/12/26 07:17:27;;;;;;;3.33;1.93;;;;;;;0.93;82.56;100295.98;1768656;81;25250;-76
2020/12/26 07:19:58;;;;;;;3.03;1.70;;;;;;;0.98;82.05;100303.19;1768856;80;25618;-77
2020/12/26 07:22:26;;;;;;;3.83;2.20;;;;;;;1.02;81.79;100300.93;1768646;81;25514;-76
2020/12/26 07:25:03;;;;;;;2.20;1.70;;;;;;;0.94;81.93;100309.35;1768885;81;25230;-76
2020/12/26 07:27:37;;;;;;;3.07;1.70;;;;;;;0.97;82.02;100318.31;1768746;80;25669;-76
2020/12/26 07:30:18;;;;;;;1.80;1.57;;;;;;;0.97;81.88;100330.42;1768713;81;25645;-76
2020/12/26 07:32:55;;;;;;;2.20;1.50;;;;;;;0.92;81.92;100334.00;1768854;81;25321;-76
2020/12/26 07:35:27;;;;;;;3.17;1.60;;;;;;;0.93;81.89;100330.50;1768885;81;25143;-76
2020/12/26 07:38:04;;;;;;;3.27;1.80;;;;;;;0.94;81.79;100340.44;1768718;81;25345;-77
2020/12/26 07:40:46;;;;;;;4.20;2.10;;;;;;;0.93;81.88;100341.31;1766538;80;25495;-76
2020/12/26 07:43:15;;;;;;;3.60;1.97;;;;;;;0.97;81.57;100338.19;1768785;81;25152;-77
2020/12/26 07:45:44;;;;;;;3.43;1.83;;;;;;;0.96;81.58;100336.52;1768505;80;25602;-76
2020/12/26 07:48:11;;;;;;;4.30;1.77;;;;;;;0.94;81.42;100343.02;1768791;81;25289;-76
2020/12/26 07:50:40;;;;;;;3.37;1.90;;;;;;;0.98;81.52;100340.75;1768653;81;25395;-77
2020/12/26 07:53:11;;;;;;;3.87;2.03;;;;;;;0.98;81.10;100350.27;1772814;80;25373;-76
2020/12/26 07:55:38;;;;;;;2.80;1.60;;;;;;;0.97;80.68;100345.96;1768774;80;25159;-76
2020/12/26 07:58:10;;;;;;;4.63;1.80;;;;;;;0.97;80.54;100348.09;1768973;80;25080;-76
2020/12/26 08:00:39;;;;;;;3.23;1.90;;;;;;;0.96;80.44;100348.17;1768913;80;25426;-76
2020/12/26 08:03:08;;;;;;;3.17;1.80;;;;;;;0.96;80.03;100359.37;1768761;80;25633;-77
2020/12/26 08:05:38;;;;;;;4.33;1.90;;;;;;;0.96;79.86;100358.08;1768702;80;25218;-76
2020/12/26 08:08:15;;;;;;;3.23;1.50;;;;;;;0.93;80.10;100353.81;1768725;80;25242;-76
2020/12/26 08:10:42;;;;;;;3.97;2.10;;;;;;;1.01;79.86;100353.62;1768765;81;25148;-77
2020/12/26 08:13:15;;;;;;;5.20;2.00;;;;;;;0.96;79.94;100355.48;1768717;81;25132;-76
2020/12/26 08:15:42;;;;;;;4.63;2.00;;;;;;;0.98;79.81;100361.92;1768720;81;25302;-76
2020/12/26 08:18:09;;;;;;;3.93;1.73;;;;;;;0.97;79.94;100359.75;1768717;80;25318;-76
2020/12/26 08:20:36;;;;;;;2.23;1.60;;;;;;;1.00;79.32;100354.50;1768708;80;25306;-77
2020/12/26 08:23:03;;;;;;;2.33;1.83;;;;;;;1.02;79.43;100359.22;1768631;81;25127;-77
2020/12/26 08:25:30;;;;;;;4.03;2.40;;;;;;;1.03;79.25;100368.67;1768819;80;25269;-77
2020/12/26 08:27:57;;;;;;;3.40;2.20;;;;;;;1.04;78.95;100372.10;1768713;80;25290;-75
2020/12/26 08:30:33;;;;;;;2.90;2.20;;;;;;;1.02;78.76;100360.94;1768613;80;25337;-75
2020/12/26 08:33:11;;;;;;;7.03;5.03;;;;;;;1.09;78.76;100367.22;1768646;80;25104;-75
2020/12/26 08:36:01;;;;;;;5.67;3.33;;;;;;;1.08;78.73;100368.09;1840570;77;25202;-75
2020/12/26 08:38:45;;;;;;;5.13;2.90;;;;;;;1.07;78.65;100374.19;1836103;78;25158;-76
2020/12/26 08:41:12;;;;;;;3.90;2.40;;;;;;;1.13;78.47;100368.44;1834359;77;25123;-75
2020/12/26 08:43:39;;;;;;;3.47;2.43;;;;;;;1.13;78.47;100365.85;1840450;77;25634;-76
2020/12/26 08:46:14;;;;;;;5.67;2.50;;;;;;;1.14;78.25;100376.59;1844865;77;25066;-75
2020/12/26 08:48:42;;;;;;;3.63;1.73;;;;;;;1.15;78.52;100383.49;1835334;77;25731;-77
2020/12/26 08:51:25;;;;;;;3.50;2.30;;;;;;;1.19;78.29;100379.91;1818045;78;25349;-75
2020/12/26 08:53:53;;;;;;;4.43;2.40;;;;;;;1.16;78.43;100383.88;1769230;80;25075;-76
2020/12/26 08:56:37;;;;;;;4.07;2.30;;;;;;;1.24;78.17;100389.28;1768933;81;25329;-76
2020/12/26 08:59:05;;;;;;;5.37;2.60;;;;;;;1.15;78.47;100396.45;1769058;81;25139;-77
2020/12/26 09:01:34;;;;;;;5.87;2.60;;;;;;;1.16;79.10;100402.02;1842564;77;25082;-76
2020/12/26 09:04:01;;;;;;;7.00;4.13;;;;;;;1.20;78.90;100403.66;1769395;80;25716;-76
2020/12/26 09:06:41;;;;;;;6.00;3.97;;;;;;;1.31;78.29;100404.23;1817334;77;25190;-76
2020/12/26 09:09:24;;;;;;;5.20;2.80;;;;;;;1.27;78.18;100406.48;1768802;81;25274;-76
2020/12/26 09:12:03;;;;;;;5.80;3.97;;;;;;;1.29;78.15;100406.86;1840983;77;25241;-76
2020/12/26 09:14:30;;;;;;;4.13;3.30;;;;;;;1.36;77.52;100402.36;1768714;80;25202;-76
2020/12/26 09:17:00;;;;;;;5.57;3.30;;;;;;;1.39;77.61;100408.76;1839551;77;25280;-77
2020/12/26 09:19:43;;;;;;;4.87;3.47;;;;;;;1.39;77.38;100412.65;1841236;77;25253;-76
2020/12/26 09:22:11;;;;;;;6.13;3.30;;;;;;;1.35;77.37;100417.49;1838160;77;25229;-76
2020/12/26 09:24:38;;;;;;;4.60;2.60;;;;;;;1.39;77.76;100408.76;1840650;77;25719;-76
2020/12/26 09:27:20;;;;;;;4.77;2.90;;;;;;;1.47;77.34;100415.02;1768847;81;25147;-76
2020/12/26 09:29:51;;;;;;;11.33;7.60;;;;;;;1.58;76.50;100408.25;1767367;80;25234;-77
2020/12/26 09:32:18;;;;;;;6.57;4.00;;;;;;;1.56;76.89;100416.07;1844979;77;25316;-77
2020/12/26 09:34:47;;;;;;;5.53;3.00;;;;;;;1.63;76.25;100419.34;1769046;80;25182;-76
2020/12/26 09:37:14;;;;;;;4.50;2.83;;;;;;;1.61;75.98;100414.62;1817417;77;25258;-77
2020/12/26 09:39:41;;;;;;;4.23;2.70;;;;;;;1.67;75.67;100416.59;1743764;81;25150;-76
2020/12/26 09:42:08;;;;;;;6.60;3.40;;;;;;;1.69;75.41;100413.96;1840306;77;25553;-77
2020/12/26 09:44:36;;;;;;;6.63;3.47;;;;;;;1.72;75.59;100415.63;1768880;81;25131;-77
2020/12/26 09:47:06;;;;;;;4.77;3.17;;;;;;;1.74;75.59;100420.33;1747111;80;25555;-77
2020/12/26 09:49:33;;;;;;;7.53;5.47;;;;;;;1.78;75.81;100417.61;1840892;77;25175;-77
2020/12/26 09:52:00;;;;;;;6.47;4.27;;;;;;;1.83;75.30;100418.32;1840497;77;25142;-77
2020/12/26 09:54:27;;;;;;;4.20;2.67;;;;;;;1.87;75.01;100420.83;1840588;78;25308;-77
2020/12/26 09:56:54;;;;;;;4.77;2.60;;;;;;;1.95;74.41;100411.08;1840682;77;25201;-77
2020/12/26 09:59:24;;;;;;;7.27;4.00;;;;;;;1.95;74.34;100411.08;1840577;77;25114;-76
2020/12/26 10:01:51;;;;;;;6.83;4.10;;;;;;;1.99;74.13;100419.16;1778370;78;25277;-76
2020/12/26 10:04:17;;;;;;;4.00;2.90;;;;;;;2.02;73.84;100421.22;1768977;80;25377;-77
2020/12/26 10:06:45;;;;;;;4.60;3.10;;;;;;;2.10;73.46;100422.30;1841394;77;25269;-77
2020/12/26 10:09:12;;;;;;;4.80;2.73;;;;;;;2.06;73.59;100414.19;1747822;81;25267;-76
2020/12/26 10:11:39;;;;;;;8.33;5.10;;;;;;;2.08;73.93;100416.31;1842025;77;25130;-77
2020/12/26 10:14:07;;;;;;;7.00;3.40;;;;;;;2.14;73.51;100416.56;1841377;78;25335;-76
2020/12/26 10:16:34;;;;;;;6.87;3.33;;;;;;;2.18;72.95;100425.98;1743485;81;25731;-76
2020/12/26 10:19:00;;;;;;;5.97;3.60;;;;;;;2.25;72.17;100417.55;1840618;77;25301;-76
2020/12/26 10:21:28;;;;;;;5.57;3.00;;;;;;;2.14;73.10;100413.97;1768975;80;25179;-76
2020/12/26 10:23:56;;;;;;;4.23;2.50;;;;;;;2.20;72.81;100419.83;1840335;77;25099;-76
2020/12/26 10:26:23;;;;;;;7.33;3.23;;;;;;;2.27;72.45;100414.45;1840573;77;25213;-76
2020/12/26 10:28:50;;;;;;;6.93;3.33;;;;;;;2.26;72.34;100413.58;1840519;77;25684;-77
2020/12/26 10:31:17;;;;;;;5.77;3.47;;;;;;;2.26;72.75;100414.88;1768794;80;25330;-77
2020/12/26 10:33:43;;;;;;;8.83;5.07;;;;;;;2.38;72.61;100417.55;1840458;77;25543;-76
2020/12/26 10:36:10;;;;;;;6.43;4.23;;;;;;;2.43;71.72;100417.41;1840453;78;25305;-76
2020/12/26 10:38:37;;;;;;;5.63;3.77;;;;;;;2.43;71.79;100417.41;1840517;78;25608;-76
2020/12/26 10:41:05;;;;;;;5.03;3.60;;;;;;;2.40;71.87;100417.92;1768806;81;25072;-76
2020/12/26 10:43:34;;;;;;;4.53;2.70;;;;;;;2.45;71.42;100419.50;1840612;77;25193;-76
2020/12/26 10:46:03;;;;;;;4.80;2.50;;;;;;;2.41;71.85;100422.22;1840904;77;25135;-77
2020/12/26 10:48:30;;;;;;;8.90;4.20;;;;;;;2.46;71.37;100419.92;1840808;77;25121;-76
2020/12/26 10:50:58;;;;;;;7.57;3.50;;;;;;;2.45;71.36;100426.87;1768747;81;25198;-76
2020/12/26 10:53:25;;;;;;;5.67;3.60;;;;;;;2.40;72.00;100423.56;1818394;77;25039;-76
2020/12/26 10:55:51;;;;;;;7.13;4.90;;;;;;;2.44;72.24;100420.42;1840821;77;25670;-76
2020/12/26 10:58:18;;;;;;;3.37;2.50;;;;;;;2.54;71.65;100415.33;1769266;81;25256;-76
2020/12/26 11:00:46;;;;;;;5.50;3.27;;;;;;;2.54;71.37;100420.07;1839394;78;26098;-76
2020/12/26 11:03:14;;;;;;;4.23;3.07;;;;;;;2.54;70.84;100417.47;1840698;77;25312;-77
2020/12/26 11:05:41;;;;;;;6.33;4.00;;;;;;;2.57;70.94;100405.70;1769134;80;25143;-76
2020/12/26 11:08:08;;;;;;;7.97;4.33;;;;;;;2.58;70.97;100410.00;1840706;77;25130;-75
2020/12/26 11:10:35;;;;;;;18.43;11.30;;;;;;;2.62;70.78;100406.02;1815932;78;25205;-75
2020/12/26 11:13:02;;;;;;;12.63;6.77;;;;;;;2.61;70.86;100412.94;1840346;78;25628;-75
2020/12/26 11:15:29;;;;;;;8.40;5.30;;;;;;;2.63;70.68;100415.48;1840505;78;25273;-77
2020/12/26 11:17:56;;;;;;;5.30;3.27;;;;;;;2.57;71.17;100419.98;1840441;77;25190;-75
2020/12/26 11:20:22;;;;;;;7.63;3.60;;;;;;;2.62;70.83;100418.54;1840534;77;25701;-76
2020/12/26 11:22:49;;;;;;;8.73;3.73;;;;;;;2.58;70.70;100415.20;1768717;81;25333;-76
2020/12/26 11:25:16;;;;;;;5.60;3.40;;;;;;;2.63;70.38;100420.68;1840670;77;25130;-76
2020/12/26 11:27:42;;;;;;;6.97;4.17;;;;;;;2.52;70.54;100415.38;1840348;77;25604;-76
2020/12/26 11:30:09;;;;;;;7.13;4.37;;;;;;;2.57;69.95;100412.64;1768830;80;25289;-77
2020/12/26 11:32:36;;;;;;;5.67;2.70;;;;;;;2.53;70.04;100416.22;1841041;77;25593;-76
2020/12/26 11:35:02;;;;;;;5.43;3.60;;;;;;;2.47;70.18;100417.28;1768335;81;25089;-76
2020/12/26 11:40:06;;;;;;;5.30;3.43;;;;;;;2.55;70.35;100421.78;1815266;77;26993;-76
2020/12/26 11:42:35;;;;;;;4.80;3.40;;;;;;;2.43;70.46;100426.08;1785938;79;25226;-76
2020/12/26 11:45:02;;;;;;;7.60;4.50;;;;;;;2.43;70.57;100419.58;1786187;79;25269;-76
2020/12/26 11:47:33;;;;;;;6.80;4.10;;;;;;;2.48;70.71;100428.50;1785799;80;25218;-76